Time;durP1;ratioP1;P1;durP2;ratioP2;P2;SDS_P1;SDS_P2;PMS_P1;PMS_P2;Temp;Humidity;BMP_temperature;BMP_pressure;BME280_temperature;BME280_humidity;BME280_pressure;Samples;Min_cycle;Max_cycle;Signal;HPM_P1;HPM_P2
2022/05/26 00:00:28;;;;;;;16.40;4.43;;;;;;;;;;5021122;28;20041;-67
2022/05/26 00:03:01;;;;;;;16.85;5.13;;;;;;;;;;5067717;28;20052;-66
2022/05/26 00:05:32;;;;;;;10.05;4.50;;;;;;;;;;5036962;28;20055;-66
2022/05/26 00:08:03;;;;;;;13.23;4.75;;;;;;;;;;5035398;28;20106;-66
2022/05/26 00:10:35;;;;;;;13.75;4.10;;;;;;;;;;5070323;28;20048;-67
2022/05/26 00:13:06;;;;;;;12.38;4.30;;;;;;;;;;5070315;28;20091;-66
2022/05/26 00:15:37;;;;;;;12.05;4.55;;;;;;;;;;5058464;28;20532;-67
2022/05/26 00:18:08;;;;;;;12.00;4.85;;;;;;;;;;5072620;28;20041;-66
2022/05/26 00:20:39;;;;;;;14.63;4.70;;;;;;;;;;5047492;28;20049;-67
2022/05/26 00:23:12;;;;;;;11.93;5.20;;;;;;;;;;5033776;28;20440;-69
2022/05/26 00:26:04;;;;;;;12.20;4.38;;;;;;;;;;4950388;29;20051;-67
2022/05/26 00:28:36;;;;;;;11.10;4.97;;;;;;;;;;4951954;29;20051;-67
2022/05/26 00:31:06;;;;;;;13.20;4.93;;;;;;;;;;4920135;28;20059;-67
2022/05/26 00:33:38;;;;;;;14.43;5.00;;;;;;;;;;4918730;28;20051;-66
2022/05/26 00:36:12;;;;;;;12.77;5.53;;;;;;;;;;4927054;29;21187;-67
2022/05/26 00:38:43;;;;;;;10.70;4.53;;;;;;;;;;4949596;28;20076;-66
2022/05/26 00:41:20;;;;;;;16.45;5.32;;;;;;;;;;4948715;28;20039;-66
2022/05/26 00:43:52;;;;;;;11.30;4.68;;;;;;;;;;4951486;28;20063;-67
2022/05/26 00:46:35;;;;;;;16.60;4.88;;;;;;;;;;4949742;28;20047;-67
2022/05/26 00:49:14;;;;;;;12.02;4.28;;;;;;;;;;4893088;29;20052;-67
2022/05/26 00:51:47;;;;;;;11.57;4.47;;;;;;;;;;4873956;29;20053;-66
2022/05/26 00:54:24;;;;;;;11.65;5.05;;;;;;;;;;4874977;29;20537;-67
2022/05/26 00:57:14;;;;;;;22.55;6.30;;;;;;;;;;4875973;29;20064;-67
2022/05/26 00:59:54;;;;;;;12.52;4.35;;;;;;;;;;4894648;29;20055;-67
2022/05/26 01:02:34;;;;;;;11.50;4.47;;;;;;;;;;4840829;29;20394;-67
2022/05/26 01:05:15;;;;;;;13.52;5.20;;;;;;;;;;4862995;29;20064;-67
2022/05/26 01:07:46;;;;;;;13.85;5.10;;;;;;;;;;4873027;29;20053;-66
2022/05/26 01:10:18;;;;;;;10.38;4.53;;;;;;;;;;4896108;29;20061;-67
2022/05/26 01:12:49;;;;;;;11.20;4.47;;;;;;;;;;4913166;29;20056;-67
2022/05/26 01:15:23;;;;;;;13.02;4.70;;;;;;;;;;4913145;29;20044;-67
2022/05/26 01:18:13;;;;;;;10.30;4.97;;;;;;;;;;4881867;29;20052;-67
2022/05/26 01:21:24;;;;;;;13.93;4.78;;;;;;;;;;4856773;29;20075;-67
2022/05/26 01:24:23;;;;;;;14.63;5.57;;;;;;;;;;4808100;29;20439;-68
2022/05/26 01:27:42;;;;;;;14.35;4.97;;;;;;;;;;4820044;29;20065;-67
2022/05/26 01:30:25;;;;;;;11.85;5.18;;;;;;;;;;4784011;29;20066;-67
2022/05/26 01:33:16;;;;;;;16.58;5.00;;;;;;;;;;4825032;29;20140;-67
2022/05/26 01:36:15;;;;;;;11.98;5.13;;;;;;;;;;4874889;29;20060;-67
2022/05/26 01:39:02;;;;;;;12.02;4.22;;;;;;;;;;4875279;29;20056;-67
2022/05/26 01:41:52;;;;;;;10.52;4.72;;;;;;;;;;4912883;29;20060;-67
2022/05/26 01:44:38;;;;;;;10.32;4.68;;;;;;;;;;4912689;29;20059;-67
2022/05/26 01:47:22;;;;;;;17.98;5.38;;;;;;;;;;4881745;29;20067;-67
2022/05/26 01:50:03;;;;;;;12.50;5.68;;;;;;;;;;4912799;29;20509;-67
2022/05/26 01:52:43;;;;;;;15.20;4.75;;;;;;;;;;4912426;29;20056;-67
2022/05/26 01:55:21;;;;;;;11.82;5.70;;;;;;;;;;4912766;29;20055;-67
2022/05/26 01:58:03;;;;;;;10.40;4.43;;;;;;;;;;4912468;29;20056;-67
2022/05/26 02:00:34;;;;;;;13.27;5.13;;;;;;;;;;4935964;28;20058;-68
2022/05/26 02:03:11;;;;;;;13.13;5.20;;;;;;;;;;4969998;28;20443;-68
2022/05/26 02:06:07;;;;;;;13.00;5.47;;;;;;;;;;5087767;28;20385;-68
2022/05/26 02:08:50;;;;;;;11.48;5.00;;;;;;;;;;5068292;28;20250;-67
2022/05/26 02:11:22;;;;;;;13.95;6.25;;;;;;;;;;5068394;28;20063;-67
2022/05/26 02:14:00;;;;;;;11.93;5.65;;;;;;;;;;5082278;28;20055;-69
2022/05/26 02:16:38;;;;;;;13.38;5.15;;;;;;;;;;5088608;28;20052;-67
2022/05/26 02:19:12;;;;;;;12.55;5.72;;;;;;;;;;5068121;28;20048;-68
2022/05/26 02:21:43;;;;;;;14.35;4.88;;;;;;;;;;5031599;28;20052;-68
2022/05/26 02:24:33;;;;;;;12.40;5.30;;;;;;;;;;5048603;28;20060;-67
2022/05/26 02:27:06;;;;;;;12.65;5.45;;;;;;;;;;5048483;28;20619;-68
2022/05/26 02:29:51;;;;;;;13.00;5.20;;;;;;;;;;5015282;28;20049;-68
2022/05/26 02:32:30;;;;;;;13.88;5.40;;;;;;;;;;5059279;28;20056;-67
2022/05/26 02:35:04;;;;;;;11.95;4.78;;;;;;;;;;5068155;28;20111;-67
2022/05/26 02:37:37;;;;;;;12.52;4.85;;;;;;;;;;5068090;28;20056;-67
2022/05/26 02:40:09;;;;;;;16.48;4.90;;;;;;;;;;5055677;28;20432;-67
2022/05/26 02:42:59;;;;;;;11.75;5.90;;;;;;;;;;5019324;28;20045;-67
2022/05/26 02:45:50;;;;;;;12.52;5.75;;;;;;;;;;5035242;28;20555;-67
2022/05/26 02:48:33;;;;;;;14.05;5.18;;;;;;;;;;5035482;28;20184;-67
2022/05/26 02:51:19;;;;;;;13.32;5.30;;;;;;;;;;5042617;28;20064;-67
2022/05/26 02:54:07;;;;;;;14.02;4.97;;;;;;;;;;5043571;28;20041;-67
2022/05/26 02:56:56;;;;;;;14.55;5.57;;;;;;;;;;5057488;28;20052;-68
2022/05/26 02:59:52;;;;;;;18.13;4.93;;;;;;;;;;5066487;28;20048;-67
2022/05/26 03:02:47;;;;;;;14.15;5.40;;;;;;;;;;5074307;28;20388;-68
2022/05/26 03:05:24;;;;;;;15.18;5.30;;;;;;;;;;5072641;28;20519;-68
2022/05/26 03:08:00;;;;;;;12.73;4.90;;;;;;;;;;5073956;28;20033;-68
2022/05/26 03:10:32;;;;;;;12.95;4.93;;;;;;;;;;5071652;28;20037;-66
2022/05/26 03:13:03;;;;;;;13.68;4.95;;;;;;;;;;5071011;28;20052;-67
2022/05/26 03:15:34;;;;;;;13.70;5.40;;;;;;;;;;5011247;28;20554;-67
2022/05/26 03:18:05;;;;;;;10.77;5.25;;;;;;;;;;5008554;28;20413;-68
2022/05/26 03:20:35;;;;;;;11.85;4.72;;;;;;;;;;5011241;28;20753;-67
2022/05/26 03:23:05;;;;;;;10.80;4.93;;;;;;;;;;5009368;28;20054;-67
2022/05/26 03:25:36;;;;;;;10.75;4.78;;;;;;;;;;4991297;28;20046;-66
2022/05/26 03:28:06;;;;;;;8.68;4.32;;;;;;;;;;4962560;28;20050;-67
2022/05/26 03:30:38;;;;;;;13.25;4.85;;;;;;;;;;4954642;28;20059;-68
2022/05/26 03:33:08;;;;;;;10.82;4.53;;;;;;;;;;4963214;28;20058;-68
2022/05/26 03:41:20;;;;;;;11.05;5.03;;;;;;;;;;4868177;29;20096;-67
2022/05/26 03:43:57;;;;;;;9.98;4.65;;;;;;;;;;4915005;29;20063;-67
2022/05/26 03:46:28;;;;;;;16.88;4.15;;;;;;;;;;4914918;29;20052;-68
2022/05/26 03:48:59;;;;;;;9.65;5.18;;;;;;;;;;4915049;29;20048;-67
2022/05/26 03:51:29;;;;;;;8.75;4.25;;;;;;;;;;4913440;29;20539;-68
2022/05/26 03:53:59;;;;;;;10.18;4.40;;;;;;;;;;4914830;29;20505;-68
2022/05/26 03:56:30;;;;;;;9.07;3.83;;;;;;;;;;4914835;29;20067;-67
2022/05/26 03:59:00;;;;;;;11.90;4.68;;;;;;;;;;4942139;28;20058;-68
2022/05/26 04:01:31;;;;;;;7.47;3.72;;;;;;;;;;4975796;28;20085;-68
2022/05/26 04:04:02;;;;;;;8.93;4.18;;;;;;;;;;4959303;28;20431;-68
2022/05/26 04:06:32;;;;;;;7.25;3.67;;;;;;;;;;5003863;28;20058;-67
2022/05/26 04:09:08;;;;;;;9.65;4.10;;;;;;;;;;4995571;28;20045;-68
2022/05/26 04:11:39;;;;;;;14.63;4.00;;;;;;;;;;4995067;28;20046;-68
2022/05/26 04:14:09;;;;;;;10.45;4.65;;;;;;;;;;5046953;28;20068;-68
2022/05/26 04:16:40;;;;;;;10.05;4.07;;;;;;;;;;5052949;28;20045;-67
2022/05/26 04:19:11;;;;;;;10.75;4.80;;;;;;;;;;5050744;28;20060;-68
2022/05/26 04:22:15;;;;;;;7.78;4.18;;;;;;;;;;5030316;28;20050;-68
2022/05/26 04:24:32;;;;;;;9.88;4.43;;;;;;;;;;5030380;28;20042;-68
2022/05/26 04:27:02;;;;;;;8.85;4.30;;;;;;;;;;5030619;28;20061;-67
2022/05/26 04:29:33;;;;;;;9.82;4.15;;;;;;;;;;5030346;28;20077;-67
2022/05/26 04:32:05;;;;;;;8.52;4.00;;;;;;;;;;5046863;28;20061;-68
2022/05/26 04:34:35;;;;;;;7.35;3.95;;;;;;;;;;5053246;28;20488;-68
2022/05/26 04:37:07;;;;;;;11.32;3.97;;;;;;;;;;5069843;28;20052;-67
2022/05/26 04:39:37;;;;;;;12.77;3.75;;;;;;;;;;5049892;28;20060;-67
2022/05/26 04:42:09;;;;;;;8.13;3.90;;;;;;;;;;5016983;28;20103;-67
2022/05/26 04:44:43;;;;;;;7.38;3.30;;;;;;;;;;5016893;28;20064;-67
2022/05/26 04:47:14;;;;;;;11.93;4.22;;;;;;;;;;5049918;28;20193;-67
2022/05/26 04:49:44;;;;;;;9.02;4.45;;;;;;;;;;4996496;28;20453;-68
2022/05/26 04:52:19;;;;;;;9.70;4.05;;;;;;;;;;5023174;28;20131;-68
2022/05/26 04:54:52;;;;;;;11.05;3.83;;;;;;;;;;5019863;28;20060;-67
2022/05/26 04:57:24;;;;;;;8.15;3.45;;;;;;;;;;5020110;28;20564;-67
2022/05/26 04:59:55;;;;;;;7.93;3.60;;;;;;;;;;5069613;28;20045;-67
2022/05/26 05:02:26;;;;;;;9.13;3.75;;;;;;;;;;5019730;28;20068;-67
2022/05/26 05:04:56;;;;;;;7.75;3.85;;;;;;;;;;5029508;28;20060;-67
2022/05/26 05:07:26;;;;;;;13.52;4.05;;;;;;;;;;5029599;28;20060;-67
2022/05/26 05:09:57;;;;;;;11.55;4.00;;;;;;;;;;5029534;28;20058;-68
2022/05/26 05:12:28;;;;;;;9.30;3.90;;;;;;;;;;5029603;28;20053;-67
2022/05/26 05:14:59;;;;;;;8.15;3.63;;;;;;;;;;5029265;28;20049;-67
2022/05/26 05:17:30;;;;;;;8.45;3.72;;;;;;;;;;5017504;28;20058;-67
2022/05/26 05:20:00;;;;;;;8.27;4.38;;;;;;;;;;4992959;28;20061;-67
2022/05/26 05:22:41;;;;;;;9.32;3.83;;;;;;;;;;5009510;28;20057;-68
2022/05/26 05:25:24;;;;;;;13.13;4.18;;;;;;;;;;5009571;28;20053;-67
2022/05/26 05:27:56;;;;;;;10.90;3.70;;;;;;;;;;5038395;28;20160;-68
2022/05/26 05:30:33;;;;;;;7.63;3.55;;;;;;;;;;5029024;28;20049;-67
2022/05/26 05:33:14;;;;;;;8.63;4.25;;;;;;;;;;5029043;28;20062;-67
2022/05/26 05:35:55;;;;;;;14.05;3.75;;;;;;;;;;5029138;28;20052;-67
2022/05/26 05:38:27;;;;;;;7.75;3.70;;;;;;;;;;5028951;28;20057;-66
2022/05/26 05:40:57;;;;;;;9.00;3.75;;;;;;;;;;5029158;28;20056;-67
2022/05/26 05:43:32;;;;;;;;;;;;;;;;;;5063943;28;20040;-67
2022/05/26 05:46:03;;;;;;;9.88;2.92;;;;;;;;;;5052643;28;19924;-66
2022/05/26 05:48:34;;;;;;;8.73;3.60;;;;;;;;;;5068835;28;20053;-67
2022/05/26 05:51:04;;;;;;;8.75;3.50;;;;;;;;;;5069125;28;20067;-66
2022/05/26 05:53:35;;;;;;;8.80;3.40;;;;;;;;;;5028168;28;20054;-67
2022/05/26 05:56:06;;;;;;;7.57;3.45;;;;;;;;;;5008722;28;20049;-67
2022/05/26 05:58:36;;;;;;;8.05;3.42;;;;;;;;;;5008973;28;20053;-66
2022/05/26 06:01:07;;;;;;;7.63;3.30;;;;;;;;;;5025001;28;20058;-68
2022/05/26 06:03:39;;;;;;;10.32;3.08;;;;;;;;;;5009037;28;20097;-67
2022/05/26 06:06:09;;;;;;;10.77;4.63;;;;;;;;;;4976517;28;20058;-67
2022/05/26 06:08:40;;;;;;;12.00;4.45;;;;;;;;;;5023379;28;20057;-67
2022/05/26 06:11:11;;;;;;;8.98;4.38;;;;;;;;;;5028552;28;20065;-67
2022/05/26 06:13:41;;;;;;;14.82;4.57;;;;;;;;;;4947146;28;20509;-68
2022/05/26 06:16:13;;;;;;;16.23;4.22;;;;;;;;;;5039564;28;20428;-67
2022/05/26 06:18:43;;;;;;;11.50;5.10;;;;;;;;;;5015284;28;20052;-67
2022/05/26 06:21:13;;;;;;;10.75;4.53;;;;;;;;;;5048280;28;20057;-67
2022/05/26 06:23:43;;;;;;;9.00;5.07;;;;;;;;;;4991759;28;20046;-67
2022/05/26 06:26:13;;;;;;;9.75;4.50;;;;;;;;;;5008754;28;20061;-67
2022/05/26 06:31:32;;;;;;;13.05;4.60;;;;;;;;;;5013121;28;20058;-68
2022/05/26 06:39:40;;;;;;;12.07;5.20;;;;;;;;;;5008905;28;20058;-67
2022/05/26 06:42:11;;;;;;;10.32;5.20;;;;;;;;;;5008473;28;20884;-67
2022/05/26 06:44:44;;;;;;;10.13;4.88;;;;;;;;;;4972792;28;20153;-67
2022/05/26 06:47:21;;;;;;;12.98;5.00;;;;;;;;;;4988815;28;21066;-68
2022/05/26 06:49:52;;;;;;;9.68;5.00;;;;;;;;;;4989091;28;20055;-67
2022/05/26 06:52:27;;;;;;;10.00;5.20;;;;;;;;;;4988615;28;20058;-67
2022/05/26 06:54:58;;;;;;;12.85;5.10;;;;;;;;;;4956734;28;20053;-67
2022/05/26 06:57:29;;;;;;;10.82;4.53;;;;;;;;;;4988700;28;20097;-67
2022/05/26 07:00:03;;;;;;;10.07;4.43;;;;;;;;;;4969364;28;20050;-66
2022/05/26 07:02:34;;;;;;;10.77;4.70;;;;;;;;;;4966099;28;20050;-66
2022/05/26 07:05:06;;;;;;;13.80;5.53;;;;;;;;;;4991850;28;20406;-67
2022/05/26 07:07:37;;;;;;;9.95;5.22;;;;;;;;;;4988522;28;20050;-67
2022/05/26 07:10:09;;;;;;;16.92;5.90;;;;;;;;;;4956585;28;20077;-67
2022/05/26 07:12:41;;;;;;;14.50;6.20;;;;;;;;;;4970733;28;20086;-66
2022/05/26 07:15:11;;;;;;;12.32;5.22;;;;;;;;;;4949763;28;20047;-67
2022/05/26 07:17:48;;;;;;;14.90;5.65;;;;;;;;;;4949936;28;20051;-67
2022/05/26 07:20:19;;;;;;;10.40;5.55;;;;;;;;;;4950028;28;20066;-67
2022/05/26 07:22:49;;;;;;;16.50;6.25;;;;;;;;;;4949963;28;20158;-66
2022/05/26 07:25:19;;;;;;;11.32;5.75;;;;;;;;;;4931361;29;20055;-67
2022/05/26 07:27:49;;;;;;;12.63;5.45;;;;;;;;;;4934122;29;20059;-67
2022/05/26 07:30:20;;;;;;;16.58;7.15;;;;;;;;;;4957714;28;20421;-67
2022/05/26 07:32:51;;;;;;;10.73;5.95;;;;;;;;;;4972331;28;20062;-68
2022/05/26 07:35:21;;;;;;;10.38;5.15;;;;;;;;;;4972355;28;20058;-67
2022/05/26 07:43:31;;;;;;;7.03;3.30;;;;;;;;;;4978805;28;20045;-67
2022/05/26 07:46:01;;;;;;;13.85;5.28;;;;;;;;;;4978340;28;20077;-67
2022/05/26 07:48:32;;;;;;;10.93;5.03;;;;;;;;;;4925274;28;20055;-67
2022/05/26 07:51:03;;;;;;;9.00;3.50;;;;;;;;;;4955553;28;20054;-68
2022/05/26 07:53:33;;;;;;;12.57;4.95;;;;;;;;;;4971989;28;20058;-67
2022/05/26 07:56:04;;;;;;;11.20;4.65;;;;;;;;;;4924084;28;20059;-67
2022/05/26 07:58:34;;;;;;;11.60;5.10;;;;;;;;;;4956438;28;20051;-67
2022/05/26 08:01:07;;;;;;;20.08;5.68;;;;;;;;;;4952389;29;20067;-66
2022/05/26 08:03:38;;;;;;;12.80;6.03;;;;;;;;;;4982016;28;20069;-67
2022/05/26 08:06:09;;;;;;;17.23;5.57;;;;;;;;;;4927204;28;20058;-66
2022/05/26 08:08:39;;;;;;;12.68;5.30;;;;;;;;;;4991497;28;20055;-67
2022/05/26 08:11:10;;;;;;;12.60;5.47;;;;;;;;;;4971626;28;20058;-68
2022/05/26 08:13:40;;;;;;;10.90;5.18;;;;;;;;;;4971676;28;20073;-67
2022/05/26 08:16:10;;;;;;;12.73;5.68;;;;;;;;;;4971712;28;20059;-67
2022/05/26 08:18:41;;;;;;;10.48;5.07;;;;;;;;;;4971728;28;20067;-68
2022/05/26 08:21:18;;;;;;;12.20;5.07;;;;;;;;;;4970118;28;20058;-67
2022/05/26 08:23:49;;;;;;;12.82;5.05;;;;;;;;;;4952565;29;20439;-67
2022/05/26 08:26:19;;;;;;;10.70;5.03;;;;;;;;;;4984224;28;20062;-66
2022/05/26 08:28:49;;;;;;;13.05;6.55;;;;;;;;;;5010818;28;20073;-67
2022/05/26 08:31:20;;;;;;;13.43;4.90;;;;;;;;;;5010106;28;20406;-67
2022/05/26 08:33:51;;;;;;;13.98;5.22;;;;;;;;;;5010729;28;20049;-67
2022/05/26 08:36:28;;;;;;;11.48;5.35;;;;;;;;;;5009627;28;20069;-66
2022/05/26 08:38:58;;;;;;;9.93;5.07;;;;;;;;;;5014589;28;20548;-68
2022/05/26 08:41:33;;;;;;;13.55;5.85;;;;;;;;;;5069996;28;20460;-68
2022/05/26 08:44:15;;;;;;;19.80;5.05;;;;;;;;;;5053845;28;20050;-67
2022/05/26 08:46:54;;;;;;;14.20;6.07;;;;;;;;;;5053729;28;20130;-67
2022/05/26 08:49:29;;;;;;;16.58;5.78;;;;;;;;;;5086703;28;20056;-67
2022/05/26 08:52:03;;;;;;;14.65;5.43;;;;;;;;;;5073613;28;20586;-67
2022/05/26 08:54:40;;;;;;;10.70;5.30;;;;;;;;;;5092506;28;20047;-67
2022/05/26 08:57:14;;;;;;;14.05;5.70;;;;;;;;;;5092230;28;20586;-66
2022/05/26 08:59:46;;;;;;;12.98;5.35;;;;;;;;;;5092517;28;20044;-67
2022/05/26 09:02:37;;;;;;;11.30;5.07;;;;;;;;;;5073294;28;20056;-66
2022/05/26 09:05:16;;;;;;;9.77;5.35;;;;;;;;;;5092574;28;20048;-67
2022/05/26 09:14:04;;;;;;;13.00;5.68;;;;;;;;;;5091241;28;20051;-67
2022/05/26 09:16:41;;;;;;;14.23;5.80;;;;;;;;;;5092314;28;20071;-67
2022/05/26 09:19:21;;;;;;;13.00;5.40;;;;;;;;;;5092140;28;20403;-66
2022/05/26 09:21:52;;;;;;;10.63;5.32;;;;;;;;;;5073540;28;20060;-67
2022/05/26 09:24:39;;;;;;;12.48;5.60;;;;;;;;;;5090598;28;20044;-66
2022/05/26 09:27:37;;;;;;;10.45;5.15;;;;;;;;;;5092166;28;20051;-67
2022/05/26 09:30:27;;;;;;;11.00;5.10;;;;;;;;;;5009336;28;20061;-66
2022/05/26 09:32:58;;;;;;;12.68;7.00;;;;;;;;;;5009108;28;20477;-66
2022/05/26 09:35:34;;;;;;;11.63;5.30;;;;;;;;;;5009188;28;20061;-67
2022/05/26 09:38:06;;;;;;;11.57;5.38;;;;;;;;;;5009289;28;20061;-67
2022/05/26 09:40:41;;;;;;;11.35;5.43;;;;;;;;;;5009212;28;20105;-66
2022/05/26 09:43:17;;;;;;;9.82;4.70;;;;;;;;;;5009244;28;20050;-66
2022/05/26 09:45:51;;;;;;;14.30;5.93;;;;;;;;;;4989282;28;20072;-67
2022/05/26 09:48:34;;;;;;;13.25;5.43;;;;;;;;;;5008877;28;20441;-66
2022/05/26 09:51:07;;;;;;;13.68;5.90;;;;;;;;;;4989211;28;20055;-66
2022/05/26 09:53:46;;;;;;;11.73;6.45;;;;;;;;;;4989311;28;20758;-67
2022/05/26 09:56:33;;;;;;;11.25;5.63;;;;;;;;;;4956987;28;20065;-66
2022/05/26 09:59:38;;;;;;;13.02;5.65;;;;;;;;;;4957004;28;20062;-66
2022/05/26 10:02:35;;;;;;;10.45;6.10;;;;;;;;;;4953362;28;20051;-68
2022/05/26 10:05:44;;;;;;;10.48;4.82;;;;;;;;;;4969919;28;20055;-66
2022/05/26 10:08:47;;;;;;;15.43;6.30;;;;;;;;;;4850689;29;20072;-67
2022/05/26 10:11:45;;;;;;;12.20;5.68;;;;;;;;;;4875138;29;20071;-67
2022/05/26 10:14:25;;;;;;;12.38;5.43;;;;;;;;;;4899931;29;20053;-68
2022/05/26 10:17:27;;;;;;;14.07;5.78;;;;;;;;;;4878323;29;20056;-67
2022/05/26 10:20:22;;;;;;;14.35;5.90;;;;;;;;;;4893500;29;20063;-69
2022/05/26 10:22:59;;;;;;;17.88;5.53;;;;;;;;;;4895709;29;20056;-67
2022/05/26 10:25:35;;;;;;;14.38;5.28;;;;;;;;;;4898418;29;20053;-67
2022/05/26 10:28:14;;;;;;;13.18;6.07;;;;;;;;;;4909249;29;20067;-68
2022/05/26 10:30:58;;;;;;;;;;;;;;;;;;4938450;29;20047;-67
2022/05/26 10:34:10;;;;;;;12.30;5.18;;;;;;;;;;4948140;29;19937;-68
2022/05/26 10:37:07;;;;;;;12.18;5.53;;;;;;;;;;4914729;29;20071;-68
2022/05/26 10:39:37;;;;;;;;;;;;;;;;;;4967236;28;20058;-68
2022/05/26 10:42:22;;;;;;;11.48;5.32;;;;;;;;;;4989330;28;19921;-68
2022/05/26 10:45:06;;;;;;;12.88;5.70;;;;;;;;;;4969338;28;20415;-67
2022/05/26 10:47:52;;;;;;;11.43;5.60;;;;;;;;;;4972183;28;20081;-67
2022/05/26 10:50:39;;;;;;;13.20;5.70;;;;;;;;;;4930673;28;20043;-66
2022/05/26 10:53:36;;;;;;;12.30;6.03;;;;;;;;;;4958151;28;20052;-67
2022/05/26 10:56:27;;;;;;;13.50;6.15;;;;;;;;;;4959922;28;20059;-67
2022/05/26 10:59:27;;;;;;;15.77;6.25;;;;;;;;;;4951039;28;20499;-67
2022/05/26 11:02:03;;;;;;;14.95;6.82;;;;;;;;;;4953826;29;20059;-67
2022/05/26 11:04:36;;;;;;;15.88;6.63;;;;;;;;;;4921310;29;20197;-67
2022/05/26 11:07:21;;;;;;;19.77;7.60;;;;;;;;;;4953995;29;20495;-67
2022/05/26 11:10:05;;;;;;;19.67;7.43;;;;;;;;;;4958130;28;20059;-67
2022/05/26 11:12:48;;;;;;;14.35;6.78;;;;;;;;;;4976455;28;20061;-68
2022/05/26 11:18:53;;;;;;;13.02;6.78;;;;;;;;;;4985750;28;20047;-69
2022/05/26 11:21:24;;;;;;;17.45;8.02;;;;;;;;;;5009674;28;20046;-67
2022/05/26 11:23:57;;;;;;;19.45;7.22;;;;;;;;;;5051357;28;20060;-68
2022/05/26 11:26:43;;;;;;;22.65;7.63;;;;;;;;;;5009204;28;20053;-68
2022/05/26 11:29:13;;;;;;;14.80;7.35;;;;;;;;;;5062407;28;20519;-68
2022/05/26 11:37:40;;;;;;;15.07;7.88;;;;;;;;;;5057495;28;20085;-67
2022/05/26 11:40:14;;;;;;;19.25;9.80;;;;;;;;;;5071289;28;20487;-66
2022/05/26 11:42:47;;;;;;;20.88;8.20;;;;;;;;;;5071584;28;20494;-67
2022/05/26 11:45:22;;;;;;;18.20;7.90;;;;;;;;;;5071010;28;20060;-67
2022/05/26 11:48:01;;;;;;;21.23;10.23;;;;;;;;;;5054247;28;20056;-67
2022/05/26 11:50:59;;;;;;;22.73;9.90;;;;;;;;;;5057099;28;20049;-66
2022/05/26 11:53:38;;;;;;;18.38;8.90;;;;;;;;;;5066162;28;20052;-66
2022/05/26 11:56:28;;;;;;;18.10;9.18;;;;;;;;;;5010829;28;20065;-66
2022/05/26 11:59:20;;;;;;;24.50;9.02;;;;;;;;;;5001808;28;20553;-66
2022/05/26 12:01:59;;;;;;;20.35;9.27;;;;;;;;;;4990975;28;20534;-66
2022/05/26 12:04:35;;;;;;;18.42;9.27;;;;;;;;;;4971630;28;20047;-67
2022/05/26 12:07:35;;;;;;;20.88;10.75;;;;;;;;;;4952134;28;20431;-69
2022/05/26 12:10:22;;;;;;;26.48;11.82;;;;;;;;;;4895632;29;20061;-73
2022/05/26 12:13:25;;;;;;;26.27;11.88;;;;;;;;;;4863198;29;20072;-71
2022/05/26 12:16:19;;;;;;;19.77;9.32;;;;;;;;;;4849212;29;20067;-71
2022/05/26 12:19:05;;;;;;;14.85;8.40;;;;;;;;;;4848807;29;20063;-70
2022/05/26 12:21:42;;;;;;;18.85;9.30;;;;;;;;;;4895116;29;20136;-69
2022/05/26 12:24:33;;;;;;;20.15;8.95;;;;;;;;;;4858020;29;20061;-70
2022/05/26 12:27:03;;;;;;;16.63;8.57;;;;;;;;;;4827086;29;20132;-69
2022/05/26 12:29:49;;;;;;;21.63;10.23;;;;;;;;;;4858041;29;20062;-69
2022/05/26 12:32:25;;;;;;;18.77;9.50;;;;;;;;;;4857316;29;20058;-70
2022/05/26 12:35:16;;;;;;;21.10;9.98;;;;;;;;;;4841183;29;20462;-69
2022/05/26 12:38:10;;;;;;;23.38;9.52;;;;;;;;;;4839260;29;20423;-69
2022/05/26 12:40:53;;;;;;;20.48;9.48;;;;;;;;;;4857421;29;20061;-68
2022/05/26 12:43:48;;;;;;;38.80;17.98;;;;;;;;;;4913935;29;20056;-69
2022/05/26 12:46:37;;;;;;;17.20;8.80;;;;;;;;;;4938137;28;20060;-68
2022/05/26 12:49:23;;;;;;;19.63;8.73;;;;;;;;;;4971077;28;20131;-70
2022/05/26 12:52:17;;;;;;;17.25;8.93;;;;;;;;;;4957836;28;20069;-69
2022/05/26 12:55:07;;;;;;;22.33;8.88;;;;;;;;;;4988878;28;20531;-68
2022/05/26 12:57:42;;;;;;;18.25;9.35;;;;;;;;;;4989948;28;20050;-68
2022/05/26 13:00:48;;;;;;;20.77;10.13;;;;;;;;;;4950949;29;20515;-67
2022/05/26 13:03:46;;;;;;;16.75;8.70;;;;;;;;;;4894536;29;20053;-68
2022/05/26 13:06:24;;;;;;;16.88;8.05;;;;;;;;;;4894140;29;20057;-71
2022/05/26 13:09:22;;;;;;;16.05;7.72;;;;;;;;;;4875075;29;20045;-68
2022/05/26 13:11:57;;;;;;;15.60;8.30;;;;;;;;;;4898334;29;20167;-68
2022/05/26 13:14:59;;;;;;;20.08;9.35;;;;;;;;;;4912367;29;20052;-68
2022/05/26 13:17:30;;;;;;;32.85;16.75;;;;;;;;;;4893687;29;20060;-67
2022/05/26 13:20:04;;;;;;;28.63;12.90;;;;;;;;;;4894291;29;20065;-67
2022/05/26 13:22:37;;;;;;;22.33;11.15;;;;;;;;;;4894207;29;20056;-67
2022/05/26 13:25:09;;;;;;;35.53;13.73;;;;;;;;;;4875583;29;20056;-67
2022/05/26 13:28:08;;;;;;;55.60;22.83;;;;;;;;;;4875394;29;20064;-67
2022/05/26 13:33:49;;;;;;;22.48;11.07;;;;;;;;;;4838546;29;20058;-67
2022/05/26 13:36:29;;;;;;;22.70;11.70;;;;;;;;;;4823372;29;20586;-69
2022/05/26 13:39:17;;;;;;;21.50;10.63;;;;;;;;;;4838158;29;20050;-68
2022/05/26 13:41:51;;;;;;;16.75;9.70;;;;;;;;;;4838529;29;20065;-67
2022/05/26 13:44:30;;;;;;;22.73;10.90;;;;;;;;;;4836588;29;20058;-67
2022/05/26 13:47:05;;;;;;;19.50;9.95;;;;;;;;;;4831804;29;20061;-69
2022/05/26 13:49:43;;;;;;;18.50;7.38;;;;;;;;;;4822899;29;20077;-70
2022/05/26 13:52:21;;;;;;;14.15;6.95;;;;;;;;;;4837506;29;20042;-68
2022/05/26 13:55:21;;;;;;;15.27;6.88;;;;;;;;;;4919917;28;20047;-67
2022/05/26 13:57:53;;;;;;;13.32;7.35;;;;;;;;;;4934852;28;20047;-68
2022/05/26 14:00:26;;;;;;;;;;;;;;;;;;4950897;28;20055;-68
2022/05/26 14:03:01;;;;;;;10.90;5.15;;;;;;;;;;4912124;29;20561;-68
2022/05/26 14:05:34;;;;;;;11.02;5.88;;;;;;;;;;4909670;29;20075;-67
2022/05/26 14:08:10;;;;;;;13.43;5.13;;;;;;;;;;4934437;29;20055;-68
2022/05/26 14:10:50;;;;;;;10.07;5.20;;;;;;;;;;4931161;29;20622;-68
2022/05/26 14:13:20;;;;;;;8.60;4.45;;;;;;;;;;4947237;29;20051;-67
2022/05/26 14:15:54;;;;;;;13.65;6.35;;;;;;;;;;4946449;29;20070;-68
2022/05/26 14:18:25;;;;;;;46.60;19.17;;;;;;;;;;4916591;29;20504;-68
2022/05/26 14:20:57;;;;;;;24.05;12.25;;;;;;;;;;4927137;29;20048;-68
2022/05/26 14:23:29;;;;;;;14.75;8.07;;;;;;;;;;4930839;29;20059;-67
2022/05/26 14:26:01;;;;;;;;;;;;;;;;;;4931905;29;20059;-68
2022/05/26 14:28:39;;;;;;;10.60;5.75;;;;;;;;;;4913348;29;20307;-67
2022/05/26 14:31:24;;;;;;;14.65;5.50;;;;;;;;;;4929151;29;20059;-67
2022/05/26 14:34:03;;;;;;;11.32;5.65;;;;;;;;;;4949329;29;20054;-68
2022/05/26 14:36:33;;;;;;;10.55;6.00;;;;;;;;;;4918844;29;20066;-67
2022/05/26 14:39:04;;;;;;;16.80;5.90;;;;;;;;;;4987839;28;20062;-67
2022/05/26 14:41:35;;;;;;;13.23;6.32;;;;;;;;;;4960850;28;20051;-68
2022/05/26 14:44:08;;;;;;;12.27;5.57;;;;;;;;;;4970081;28;20414;-67
2022/05/26 14:46:39;;;;;;;9.50;5.40;;;;;;;;;;4991158;28;20062;-67
2022/05/26 14:49:16;;;;;;;10.77;6.13;;;;;;;;;;5045609;28;20057;-67
2022/05/26 14:51:48;;;;;;;13.50;6.43;;;;;;;;;;5007050;28;20868;-67
2022/05/26 14:57:08;;;;;;;14.05;6.53;;;;;;;;;;5032160;28;20046;-67
2022/05/26 14:59:39;;;;;;;11.65;6.75;;;;;;;;;;5031812;28;20049;-67
2022/05/26 15:02:17;;;;;;;14.98;7.05;;;;;;;;;;5031982;28;20064;-67
2022/05/26 15:04:48;;;;;;;13.63;6.38;;;;;;;;;;5032025;28;20061;-67
2022/05/26 15:07:19;;;;;;;12.90;6.82;;;;;;;;;;5031879;28;20062;-67
2022/05/26 15:09:50;;;;;;;14.30;7.75;;;;;;;;;;4998953;28;20049;-67
2022/05/26 15:12:21;;;;;;;18.50;7.57;;;;;;;;;;5031819;28;20068;-67
2022/05/26 15:14:51;;;;;;;16.13;7.00;;;;;;;;;;5011323;28;20049;-67
2022/05/26 15:17:23;;;;;;;14.65;6.35;;;;;;;;;;4979360;28;20061;-67
2022/05/26 15:20:01;;;;;;;13.35;7.05;;;;;;;;;;4947453;28;20504;-67
2022/05/26 15:22:33;;;;;;;16.42;7.25;;;;;;;;;;4992358;28;20640;-67
2022/05/26 15:25:06;;;;;;;14.32;6.63;;;;;;;;;;4992206;28;20050;-67
2022/05/26 15:27:38;;;;;;;16.05;7.20;;;;;;;;;;4992156;28;20070;-67
2022/05/26 15:30:11;;;;;;;16.50;6.43;;;;;;;;;;4992229;28;20055;-67
2022/05/26 15:32:45;;;;;;;13.15;5.75;;;;;;;;;;4992134;28;20058;-67
2022/05/26 15:35:21;;;;;;;11.52;5.72;;;;;;;;;;4992008;28;20055;-67
2022/05/26 15:37:56;;;;;;;12.93;6.97;;;;;;;;;;5021655;28;20053;-67
2022/05/26 15:40:26;;;;;;;11.60;5.80;;;;;;;;;;5011191;28;20046;-67
2022/05/26 15:42:57;;;;;;;12.18;6.45;;;;;;;;;;5011515;28;20186;-67
2022/05/26 15:45:27;;;;;;;13.63;6.68;;;;;;;;;;5011550;28;20065;-67
2022/05/26 15:47:59;;;;;;;12.10;6.45;;;;;;;;;;5011134;28;20061;-67
2022/05/26 15:50:31;;;;;;;12.52;7.00;;;;;;;;;;4978849;28;20061;-67
2022/05/26 15:53:01;;;;;;;13.80;7.10;;;;;;;;;;5040015;28;20394;-67
2022/05/26 15:55:34;;;;;;;13.50;7.10;;;;;;;;;;5051094;28;20052;-67
2022/05/26 15:58:04;;;;;;;14.05;6.95;;;;;;;;;;5050966;28;20075;-67
2022/05/26 16:00:35;;;;;;;15.30;8.15;;;;;;;;;;5050927;28;20045;-67
2022/05/26 16:03:06;;;;;;;15.07;7.85;;;;;;;;;;5034852;28;20517;-67
2022/05/26 16:05:36;;;;;;;16.58;9.43;;;;;;;;;;5050923;28;20053;-67
2022/05/26 16:08:07;;;;;;;16.70;9.15;;;;;;;;;;5050524;28;20044;-67
2022/05/26 16:10:37;;;;;;;14.80;8.93;;;;;;;;;;5017988;28;20053;-67
2022/05/26 16:13:10;;;;;;;18.15;8.40;;;;;;;;;;5010693;28;20049;-67